Time;durP1;ratioP1;P1;durP2;ratioP2;P2;SDS_P1;SDS_P2;PMS_P1;PMS_P2;Temp;Humidity;BMP_temperature;BMP_pressure;BME280_temperature;BME280_humidity;BME280_pressure;Samples;Min_cycle;Max_cycle;Signal;HPM_P1;HPM_P2
2021/05/22 00:00:18;;;;;;;0.60;0.60;;;5.90;99.90;;;;;;2105982;28;20178;-63
2021/05/22 00:01:19;;;;;;;2.83;1.00;;;5.80;99.90;;;;;;2105898;28;20661;-63
2021/05/22 00:02:19;;;;;;;1.77;0.80;;;5.80;99.90;;;;;;2106044;28;20175;-63
2021/05/22 00:03:20;;;;;;;1.47;0.80;;;5.80;99.90;;;;;;2106128;28;20529;-63
2021/05/22 00:04:21;;;;;;;1.00;0.90;;;5.90;99.90;;;;;;2106100;28;20182;-63
2021/05/22 00:05:22;;;;;;;1.43;0.90;;;5.90;99.90;;;;;;2106059;28;20232;-64
2021/05/22 00:06:23;;;;;;;2.47;1.00;;;5.90;99.90;;;;;;2105933;28;20189;-63
2021/05/22 00:07:23;;;;;;;1.50;0.93;;;5.90;99.90;;;;;;2106006;28;20235;-63
2021/05/22 00:08:24;;;;;;;1.37;0.87;;;5.90;99.90;;;;;;2105922;28;20646;-64
2021/05/22 00:09:25;;;;;;;1.83;0.97;;;6.00;99.90;;;;;;2105999;28;20227;-64
2021/05/22 00:10:25;;;;;;;1.53;0.80;;;6.00;99.90;;;;;;2105854;28;20210;-63
2021/05/22 00:11:26;;;;;;;1.90;0.97;;;5.90;99.90;;;;;;2105896;28;20175;-64
2021/05/22 00:12:27;;;;;;;2.73;1.03;;;6.00;99.90;;;;;;2106006;28;20686;-64
2021/05/22 00:13:27;;;;;;;1.20;0.90;;;6.00;99.90;;;;;;2106040;28;20269;-63
2021/05/22 00:14:28;;;;;;;1.60;0.90;;;6.00;99.90;;;;;;2106049;28;20262;-63
2021/05/22 00:15:29;;;;;;;1.60;0.90;;;6.00;99.90;;;;;;2106298;28;20174;-63
2021/05/22 00:16:30;;;;;;;1.57;0.87;;;6.00;99.90;;;;;;2105816;28;20780;-64
2021/05/22 00:17:31;;;;;;;1.52;1.00;;;6.00;99.90;;;;;;2106161;28;20185;-63
2021/05/22 00:18:32;;;;;;;2.93;1.13;;;6.00;99.90;;;;;;2105895;28;20187;-64
2021/05/22 00:19:32;;;;;;;1.43;1.10;;;5.90;99.90;;;;;;2105982;28;20185;-62
2021/05/22 00:20:33;;;;;;;1.97;0.90;;;6.00;99.90;;;;;;2105750;28;20202;-63
2021/05/22 00:21:34;;;;;;;0.80;0.80;;;6.00;99.90;;;;;;2105643;28;20808;-63
2021/05/22 00:22:35;;;;;;;2.23;1.00;;;6.00;99.90;;;;;;2105819;28;20183;-63
2021/05/22 00:23:35;;;;;;;1.92;1.00;;;6.00;99.90;;;;;;2105982;28;20560;-63
2021/05/22 00:24:36;;;;;;;1.50;1.00;;;6.00;99.90;;;;;;2105820;28;20191;-62
2021/05/22 00:25:37;;;;;;;1.10;0.93;;;6.00;99.90;;;;;;2105791;28;20553;-63
2021/05/22 00:26:38;;;;;;;2.70;1.00;;;6.00;99.90;;;;;;2105658;28;20633;-63
2021/05/22 00:27:39;;;;;;;2.25;1.10;;;6.00;99.90;;;;;;2105969;28;20186;-63
2021/05/22 00:28:40;;;;;;;1.73;1.10;;;6.00;99.90;;;;;;2105670;28;20179;-63
2021/05/22 00:29:41;;;;;;;1.77;1.20;;;6.00;99.90;;;;;;2105946;28;20332;-63
2021/05/22 00:30:41;;;;;;;3.00;1.10;;;6.00;99.90;;;;;;2105753;28;20209;-63
2021/05/22 00:31:42;;;;;;;1.33;1.00;;;6.10;99.90;;;;;;2105737;28;20701;-64
2021/05/22 00:32:43;;;;;;;2.97;1.20;;;6.10;99.90;;;;;;2105657;28;20284;-63
2021/05/22 00:33:43;;;;;;;1.10;0.80;;;6.10;99.90;;;;;;2105897;28;20167;-63
2021/05/22 00:34:44;;;;;;;3.00;1.20;;;6.20;99.90;;;;;;2105820;28;20183;-63
2021/05/22 00:35:45;;;;;;;2.20;1.00;;;6.10;99.90;;;;;;2105666;28;20205;-63
2021/05/22 00:36:46;;;;;;;2.53;1.00;;;6.20;99.90;;;;;;2105815;28;20179;-63
2021/05/22 00:37:46;;;;;;;2.90;1.00;;;6.20;99.90;;;;;;2105491;28;20270;-63
2021/05/22 00:38:47;;;;;;;2.33;1.00;;;6.20;99.90;;;;;;2105867;28;20171;-63
2021/05/22 00:39:48;;;;;;;2.90;1.20;;;6.20;99.90;;;;;;2105757;28;20224;-63
2021/05/22 00:40:49;;;;;;;2.50;1.13;;;6.30;99.90;;;;;;2105599;28;20191;-63
2021/05/22 00:41:49;;;;;;;2.33;0.90;;;6.30;99.90;;;;;;2105503;28;20183;-62
2021/05/22 00:42:50;;;;;;;1.90;0.93;;;6.20;99.90;;;;;;2105246;28;20183;-63
2021/05/22 00:43:51;;;;;;;1.30;0.90;;;6.20;99.90;;;;;;2105837;28;20187;-63
2021/05/22 00:45:12;;;;;;;2.90;1.20;;;6.20;99.90;;;;;;2105763;28;20224;-63
2021/05/22 00:46:12;;;;;;;2.80;1.10;;;6.20;99.90;;;;;;2105653;28;20237;-63
2021/05/22 00:47:13;;;;;;;2.47;1.10;;;6.20;99.90;;;;;;2105837;28;20274;-63
2021/05/22 00:48:14;;;;;;;2.70;1.37;;;6.20;99.90;;;;;;2105494;28;20653;-63
2021/05/22 00:49:15;;;;;;;4.40;1.20;;;6.20;99.90;;;;;;2105642;28;20179;-64
2021/05/22 00:50:21;;;;;;;2.70;1.20;;;6.20;99.90;;;;;;2105495;28;20171;-63
2021/05/22 00:51:22;;;;;;;2.60;1.20;;;6.30;99.90;;;;;;2105468;28;20304;-64
2021/05/22 00:52:24;;;;;;;3.80;1.20;;;6.30;99.90;;;;;;2105581;28;20235;-63
2021/05/22 00:53:26;;;;;;;4.45;1.20;;;6.30;99.90;;;;;;2105120;28;20178;-63
2021/05/22 00:54:27;;;;;;;3.15;1.13;;;6.30;99.90;;;;;;2104668;28;20232;-62
2021/05/22 00:55:28;;;;;;;2.30;1.10;;;6.30;99.90;;;;;;2105050;28;20175;-63
2021/05/22 00:56:28;;;;;;;4.10;1.40;;;6.30;99.90;;;;;;2104870;28;20186;-63
2021/05/22 00:57:30;;;;;;;4.17;1.20;;;6.40;99.90;;;;;;2105062;28;20298;-63
2021/05/22 00:58:32;;;;;;;4.13;1.20;;;6.40;99.90;;;;;;2104969;28;20179;-63
2021/05/22 00:59:33;;;;;;;3.25;1.33;;;6.50;99.90;;;;;;2104849;28;20211;-63
2021/05/22 01:00:44;;;;;;;3.23;1.13;;;6.50;99.90;;;;;;2104876;28;20680;-63
2021/05/22 01:01:46;;;;;;;3.60;1.20;;;6.50;99.90;;;;;;2105444;28;20155;-63
2021/05/22 01:02:48;;;;;;;4.35;1.55;;;6.50;99.90;;;;;;2105593;28;20228;-63
2021/05/22 01:03:52;;;;;;;2.13;1.13;;;6.50;99.90;;;;;;2105185;28;20175;-63
2021/05/22 01:04:55;;;;;;;2.30;1.10;;;6.50;99.90;;;;;;2104835;28;20182;-63
2021/05/22 01:06:11;;;;;;;3.00;1.15;;;6.50;99.90;;;;;;2105656;28;20547;-63
2021/05/22 01:07:11;;;;;;;3.83;1.27;;;6.50;99.90;;;;;;2105732;28;20333;-63
2021/05/22 01:08:23;;;;;;;3.60;1.80;;;6.50;99.90;;;;;;2105662;28;20182;-63
2021/05/22 01:09:25;;;;;;;2.72;1.10;;;6.50;99.90;;;;;;2105741;28;20167;-63
2021/05/22 01:10:25;;;;;;;3.60;1.30;;;6.50;99.90;;;;;;2104578;28;20183;-63
2021/05/22 01:11:36;;;;;;;4.53;1.67;;;6.40;99.90;;;;;;2096652;28;20190;-63
2021/05/22 01:12:42;;;;;;;3.95;1.42;;;6.40;99.90;;;;;;2097985;28;20192;-63
2021/05/22 01:13:47;;;;;;;3.20;1.17;;;6.40;99.90;;;;;;2105011;28;20190;-63
2021/05/22 01:15:03;;;;;;;2.08;1.10;;;6.30;99.90;;;;;;2105484;28;20275;-62
2021/05/22 01:16:05;;;;;;;2.65;1.20;;;6.40;99.90;;;;;;2105500;28;20200;-63
2021/05/22 01:17:06;;;;;;;3.55;1.23;;;6.40;99.90;;;;;;2104894;28;20186;-63
2021/05/22 01:18:08;;;;;;;1.80;1.17;;;6.50;99.90;;;;;;2096683;28;20757;-63
2021/05/22 01:19:19;;;;;;;4.40;1.30;;;6.50;99.90;;;;;;2104957;28;20179;-63
2021/05/22 01:20:42;;;;;;;2.10;1.20;;;6.50;99.90;;;;;;2096598;28;20167;-63
2021/05/22 01:21:43;;;;;;;7.15;1.80;;;6.50;99.90;;;;;;2100331;28;20634;-63
2021/05/22 01:22:50;;;;;;;4.80;1.37;;;6.50;99.90;;;;;;2105421;28;20193;-63
2021/05/22 01:24:08;;;;;;;6.75;1.40;;;6.50;99.90;;;;;;2105571;28;20228;-63
2021/05/22 01:25:42;;;;;;;4.35;1.23;;;6.50;99.90;;;;;;2099166;28;20183;-63
2021/05/22 01:26:44;;;;;;;3.22;1.40;;;6.50;99.90;;;;;;2100861;28;20175;-62
2021/05/22 01:27:45;;;;;;;4.97;1.65;;;6.50;99.90;;;;;;2096645;28;20187;-64
2021/05/22 01:28:46;;;;;;;3.95;1.38;;;6.50;99.90;;;;;;2096665;28;20179;-64
2021/05/22 01:29:47;;;;;;;2.83;1.40;;;6.50;99.90;;;;;;2096567;28;20680;-63
2021/05/22 01:30:48;;;;;;;4.85;1.55;;;6.50;99.90;;;;;;2088188;28;20235;-63
2021/05/22 01:31:49;;;;;;;5.43;1.83;;;6.60;99.90;;;;;;2096275;28;20246;-63
2021/05/22 01:32:50;;;;;;;3.70;1.40;;;6.60;99.90;;;;;;2104790;28;20337;-64
2021/05/22 01:33:51;;;;;;;3.50;1.23;;;6.50;99.90;;;;;;2104823;28;20176;-63
2021/05/22 01:34:55;;;;;;;3.83;1.30;;;6.50;99.90;;;;;;2105479;28;20175;-63
2021/05/22 01:35:56;;;;;;;4.25;1.40;;;6.50;99.90;;;;;;2105324;28;20265;-63
2021/05/22 01:36:57;;;;;;;3.60;1.17;;;6.50;99.90;;;;;;2105519;28;20703;-63
2021/05/22 01:37:58;;;;;;;3.53;1.20;;;6.50;99.90;;;;;;2104528;28;20224;-63
2021/05/22 01:38:58;;;;;;;4.60;1.30;;;6.50;99.90;;;;;;2104907;28;20178;-63
2021/05/22 01:39:59;;;;;;;2.80;1.30;;;6.50;99.90;;;;;;2105361;28;20228;-63
2021/05/22 01:41:00;;;;;;;1.70;1.43;;;6.50;99.90;;;;;;2105516;28;20580;-63
2021/05/22 01:42:01;;;;;;;6.43;1.70;;;6.60;99.90;;;;;;2104584;28;20175;-63
2021/05/22 01:43:03;;;;;;;4.73;1.60;;;6.60;99.90;;;;;;2096461;28;20208;-63
2021/05/22 01:44:04;;;;;;;7.28;1.70;;;6.60;99.90;;;;;;2096398;28;20229;-62
2021/05/22 01:45:13;;;;;;;5.53;1.63;;;6.60;99.90;;;;;;2104921;28;20238;-62
2021/05/22 01:46:15;;;;;;;3.63;1.20;;;6.60;99.90;;;;;;2104754;28;20203;-63
2021/05/22 01:47:19;;;;;;;4.10;1.48;;;6.60;99.90;;;;;;2096652;28;20180;-63
2021/05/22 01:48:25;;;;;;;3.40;1.40;;;6.60;99.90;;;;;;2096719;28;20184;-63
2021/05/22 01:49:27;;;;;;;3.47;1.40;;;6.60;99.90;;;;;;2097187;28;20226;-64
2021/05/22 01:50:32;;;;;;;5.18;1.50;;;6.60;99.90;;;;;;2096612;28;20210;-63
2021/05/22 01:51:33;;;;;;;5.78;1.65;;;6.60;99.90;;;;;;2096827;28;20234;-63
2021/05/22 01:52:37;;;;;;;4.03;1.50;;;6.60;99.90;;;;;;2104677;28;20179;-63
2021/05/22 01:53:40;;;;;;;5.25;1.90;;;6.70;99.90;;;;;;2104805;28;20209;-63
2021/05/22 01:54:41;;;;;;;4.63;1.52;;;6.60;99.90;;;;;;2104690;28;20214;-63
2021/05/22 01:55:44;;;;;;;4.73;1.47;;;6.60;99.90;;;;;;2097579;28;20241;-63
2021/05/22 01:56:46;;;;;;;5.03;1.88;;;6.70;99.90;;;;;;2104261;28;20726;-64
2021/05/22 01:57:46;;;;;;;3.63;1.60;;;6.60;99.90;;;;;;2123272;27;20668;-63
2021/05/22 01:58:47;;;;;;;6.13;1.80;;;6.70;99.90;;;;;;2115563;28;20175;-63
2021/05/22 01:59:48;;;;;;;5.40;1.63;;;6.70;99.90;;;;;;2114869;28;20185;-63
2021/05/22 02:00:49;;;;;;;3.93;2.00;;;6.70;99.90;;;;;;2114852;28;20538;-63
2021/05/22 02:01:51;;;;;;;4.75;1.60;;;6.70;99.90;;;;;;2115333;28;20270;-63
2021/05/22 02:03:01;;;;;;;5.15;1.80;;;6.70;99.90;;;;;;2115476;28;20193;-63
2021/05/22 02:04:07;;;;;;;5.50;1.63;;;6.70;99.90;;;;;;2115540;28;20188;-63
2021/05/22 02:05:08;;;;;;;7.03;1.88;;;6.70;99.90;;;;;;2115281;27;20262;-62
2021/05/22 02:06:19;;;;;;;4.47;1.98;;;6.80;99.90;;;;;;2115420;28;20194;-63
2021/05/22 02:07:21;;;;;;;6.40;1.80;;;6.80;99.90;;;;;;2115355;28;20170;-63
2021/05/22 02:08:24;;;;;;;7.95;1.67;;;6.70;99.90;;;;;;2114766;28;20279;-63
2021/05/22 02:09:27;;;;;;;5.88;1.90;;;6.80;99.90;;;;;;2114546;28;20187;-63
2021/05/22 02:10:29;;;;;;;8.13;1.80;;;6.70;99.90;;;;;;2115137;28;20178;-63
2021/05/22 02:11:35;;;;;;;6.82;1.95;;;6.80;99.90;;;;;;2114371;28;20182;-63
2021/05/22 02:12:38;;;;;;;4.90;1.73;;;6.80;99.90;;;;;;2106919;28;20223;-63
2021/05/22 02:13:41;;;;;;;4.90;1.60;;;6.80;99.90;;;;;;2106496;28;20703;-64
2021/05/22 02:14:43;;;;;;;8.40;2.05;;;6.80;99.90;;;;;;2106545;28;20678;-63
2021/05/22 02:15:59;;;;;;;5.63;1.80;;;6.70;99.90;;;;;;2114329;28;20224;-63
2021/05/22 02:17:05;;;;;;;7.30;1.70;;;6.70;99.90;;;;;;2115096;28;20178;-63
2021/05/22 02:18:09;;;;;;;5.47;1.55;;;6.70;99.90;;;;;;2114673;28;20851;-63
2021/05/22 02:19:11;;;;;;;6.18;1.95;;;6.80;99.90;;;;;;2106565;28;20232;-63
2021/05/22 02:20:17;;;;;;;3.53;1.60;;;6.80;99.90;;;;;;2114655;28;20238;-63
2021/05/22 02:21:18;;;;;;;4.57;1.70;;;6.80;99.90;;;;;;2114084;28;20750;-63
2021/05/22 02:22:22;;;;;;;3.92;1.90;;;6.90;99.90;;;;;;2114516;28;20178;-63
2021/05/22 02:23:24;;;;;;;4.03;1.63;;;6.90;99.90;;;;;;2114389;28;20282;-63
2021/05/22 02:24:25;;;;;;;6.60;2.03;;;6.90;99.90;;;;;;2115058;28;20182;-63
2021/05/22 02:25:27;;;;;;;5.57;1.60;;;6.80;99.90;;;;;;2114841;28;20178;-62
2021/05/22 02:26:28;;;;;;;9.18;1.80;;;6.80;99.90;;;;;;2114977;28;20186;-63
2021/05/22 02:27:29;;;;;;;6.85;2.10;;;6.90;99.90;;;;;;2114479;28;20267;-63
2021/05/22 02:28:33;;;;;;;5.43;2.17;;;6.80;99.90;;;;;;2106137;28;20665;-63
2021/05/22 02:29:36;;;;;;;3.78;1.63;;;6.80;99.90;;;;;;2106365;28;20263;-62
2021/05/22 02:30:42;;;;;;;5.78;2.03;;;6.80;99.90;;;;;;2106261;28;20183;-64
2021/05/22 02:31:48;;;;;;;7.32;2.03;;;6.90;99.90;;;;;;2114197;28;20163;-64
2021/05/22 02:32:49;;;;;;;4.95;1.55;;;6.90;99.90;;;;;;2115146;28;20668;-63
2021/05/22 02:33:51;;;;;;;7.28;1.75;;;6.90;99.90;;;;;;2114461;28;20277;-63
2021/05/22 02:34:57;;;;;;;5.88;1.83;;;6.90;99.90;;;;;;2114417;28;20171;-63
2021/05/22 02:35:59;;;;;;;13.07;1.95;;;6.90;99.90;;;;;;2106644;28;20223;-63
2021/05/22 02:37:01;;;;;;;6.07;1.65;;;6.90;99.90;;;;;;2097700;28;20186;-63
2021/05/22 02:38:03;;;;;;;5.28;1.67;;;6.90;99.90;;;;;;2097679;28;20183;-62
2021/05/22 02:39:06;;;;;;;5.65;1.58;;;6.90;99.90;;;;;;2106280;28;20183;-64
2021/05/22 02:40:16;;;;;;;6.38;2.38;;;6.90;99.90;;;;;;2114101;28;20250;-63
2021/05/22 02:41:19;;;;;;;5.03;1.70;;;6.90;99.90;;;;;;2114201;28;20167;-63
2021/05/22 02:42:21;;;;;;;6.47;1.50;;;6.90;99.90;;;;;;2114142;28;20273;-63
2021/05/22 02:43:25;;;;;;;5.47;1.60;;;6.80;99.90;;;;;;2114250;28;20182;-63
2021/05/22 02:44:28;;;;;;;2.72;1.42;;;6.80;99.90;;;;;;2114291;28;20182;-63
2021/05/22 02:45:30;;;;;;;6.95;1.77;;;6.90;99.90;;;;;;2114248;28;20206;-63
2021/05/22 02:46:44;;;;;;;5.05;1.35;;;6.80;99.90;;;;;;2114327;28;20190;-63
2021/05/22 02:47:47;;;;;;;5.07;1.60;;;6.80;99.90;;;;;;2114245;28;20256;-64
2021/05/22 02:48:51;;;;;;;5.38;1.77;;;6.80;99.90;;;;;;2105911;28;20274;-63
2021/05/22 02:49:53;;;;;;;6.15;1.77;;;6.80;99.90;;;;;;2106293;28;20191;-63
2021/05/22 02:50:56;;;;;;;5.95;1.60;;;6.80;99.90;;;;;;2114284;28;20199;-65
2021/05/22 02:52:00;;;;;;;4.63;1.45;;;6.80;99.90;;;;;;2114285;28;20208;-63
2021/05/22 02:53:02;;;;;;;4.28;1.30;;;6.80;99.90;;;;;;2106367;28;20168;-63
2021/05/22 02:54:05;;;;;;;4.18;1.70;;;6.80;99.90;;;;;;2105802;28;20191;-63
2021/05/22 02:55:09;;;;;;;5.03;1.67;;;6.80;99.90;;;;;;2106017;28;20179;-63
2021/05/22 02:56:11;;;;;;;5.20;1.60;;;6.80;99.90;;;;;;2100400;28;20197;-63
2021/05/22 02:57:13;;;;;;;4.75;1.67;;;6.80;99.90;;;;;;2105472;28;20184;-63
2021/05/22 02:58:16;;;;;;;5.68;1.70;;;6.80;99.90;;;;;;2099774;28;20184;-63
2021/05/22 02:59:18;;;;;;;5.55;1.58;;;6.80;99.90;;;;;;2106484;28;20269;-62
2021/05/22 03:00:21;;;;;;;6.45;1.55;;;6.90;99.90;;;;;;2105754;28;20192;-63
2021/05/22 03:01:22;;;;;;;4.50;1.50;;;6.90;99.90;;;;;;2105751;28;20669;-63
2021/05/22 03:02:23;;;;;;;6.88;1.90;;;6.90;99.90;;;;;;2114193;28;20190;-63
2021/05/22 03:03:23;;;;;;;10.13;2.05;;;6.90;99.90;;;;;;2114205;28;20210;-63
2021/05/22 03:04:24;;;;;;;5.33;1.67;;;6.90;99.90;;;;;;2114775;27;20190;-63
2021/05/22 03:05:26;;;;;;;7.47;1.70;;;6.90;99.90;;;;;;2114146;28;20206;-64
2021/05/22 03:06:27;;;;;;;4.50;1.75;;;6.90;99.90;;;;;;2105407;28;20179;-64
2021/05/22 03:07:28;;;;;;;7.47;1.77;;;6.90;99.90;;;;;;2114251;28;20178;-63
2021/05/22 03:08:28;;;;;;;4.97;1.70;;;6.90;99.90;;;;;;2114299;28;20243;-63
2021/05/22 03:09:30;;;;;;;3.00;1.40;;;6.90;99.90;;;;;;2114305;28;20179;-63
2021/05/22 03:10:31;;;;;;;8.75;1.73;;;6.90;99.90;;;;;;2114458;28;20622;-63
2021/05/22 03:11:32;;;;;;;3.72;1.27;;;6.90;99.90;;;;;;2113899;28;20193;-63
2021/05/22 03:12:36;;;;;;;5.35;1.95;;;6.90;99.90;;;;;;2105745;28;20175;-63
2021/05/22 03:13:37;;;;;;;7.43;2.00;;;6.80;99.90;;;;;;2114163;28;20184;-63
2021/05/22 03:14:37;;;;;;;5.00;1.57;;;6.90;99.90;;;;;;2114860;28;20192;-63
2021/05/22 03:15:38;;;;;;;5.57;1.43;;;6.90;99.90;;;;;;2114596;28;20175;-63
2021/05/22 03:16:39;;;;;;;3.90;1.87;;;6.90;99.90;;;;;;2114842;28;20182;-63
2021/05/22 03:17:39;;;;;;;5.00;1.57;;;6.90;99.90;;;;;;2114603;28;20488;-64
2021/05/22 03:18:40;;;;;;;5.87;1.70;;;6.90;99.90;;;;;;2114167;28;20182;-63
2021/05/22 03:19:41;;;;;;;7.67;1.77;;;6.90;99.90;;;;;;2114054;28;20170;-63
2021/05/22 03:20:41;;;;;;;3.07;1.30;;;6.90;99.90;;;;;;2114712;28;20238;-63
2021/05/22 03:21:42;;;;;;;4.73;1.60;;;6.90;99.90;;;;;;2114631;27;20173;-63
2021/05/22 03:22:43;;;;;;;5.07;1.67;;;6.90;99.90;;;;;;2114804;28;20174;-63
2021/05/22 03:23:44;;;;;;;5.77;1.90;;;6.80;99.90;;;;;;2114700;28;20262;-63
2021/05/22 03:24:44;;;;;;;4.93;1.40;;;6.90;99.90;;;;;;2114770;28;20167;-63
2021/05/22 03:25:45;;;;;;;8.67;1.93;;;6.90;99.90;;;;;;2114524;28;20692;-63
2021/05/22 03:26:46;;;;;;;7.93;1.80;;;6.90;99.90;;;;;;2114598;27;20186;-63
2021/05/22 03:27:46;;;;;;;4.73;1.50;;;6.90;99.90;;;;;;2114487;28;20182;-64
2021/05/22 03:28:47;;;;;;;4.60;1.70;;;6.90;99.90;;;;;;2114577;28;20174;-63
2021/05/22 03:29:48;;;;;;;4.90;1.40;;;6.90;99.90;;;;;;2114504;28;20166;-63
2021/05/22 03:30:49;;;;;;;6.83;1.77;;;6.90;99.90;;;;;;2114550;28;20207;-63
2021/05/22 03:31:50;;;;;;;5.35;1.30;;;6.80;99.90;;;;;;2114345;28;20197;-63
2021/05/22 03:32:51;;;;;;;4.10;1.30;;;6.80;99.90;;;;;;2114769;28;20179;-63
2021/05/22 03:33:52;;;;;;;3.80;1.40;;;6.80;99.90;;;;;;2114696;28;20178;-63
2021/05/22 03:34:52;;;;;;;6.10;1.50;;;6.80;99.90;;;;;;2114677;28;20171;-63
2021/05/22 03:35:53;;;;;;;6.77;1.80;;;6.80;99.90;;;;;;2114599;27;20209;-63
2021/05/22 03:36:54;;;;;;;4.50;1.40;;;6.80;99.90;;;;;;2114662;28;20251;-64
2021/05/22 03:37:55;;;;;;;3.93;1.60;;;6.80;99.90;;;;;;2114503;28;20423;-63
2021/05/22 03:38:55;;;;;;;4.50;1.63;;;6.80;99.90;;;;;;2114810;28;20255;-63
2021/05/22 03:39:56;;;;;;;5.43;1.40;;;6.70;99.90;;;;;;2114503;28;20268;-63
2021/05/22 03:40:57;;;;;;;6.80;1.37;;;6.70;99.90;;;;;;2114713;28;20206;-63
2021/05/22 03:41:57;;;;;;;4.20;1.40;;;6.80;99.90;;;;;;2114357;28;20253;-64
2021/05/22 03:42:58;;;;;;;5.00;1.33;;;6.80;99.90;;;;;;2113890;28;20261;-63
2021/05/22 03:43:59;;;;;;;4.43;1.63;;;6.80;99.90;;;;;;2113930;28;20170;-63
2021/05/22 03:45:00;;;;;;;4.23;1.53;;;6.80;99.90;;;;;;2114584;28;20239;-64
2021/05/22 03:46:00;;;;;;;5.87;2.10;;;6.80;99.90;;;;;;2114404;28;20284;-63
2021/05/22 03:47:01;;;;;;;3.70;1.50;;;6.80;99.90;;;;;;2114578;27;20174;-63
2021/05/22 03:48:02;;;;;;;5.90;1.43;;;6.80;99.90;;;;;;2114391;28;20174;-64
2021/05/22 03:49:03;;;;;;;7.45;1.83;;;6.90;99.90;;;;;;2114465;28;20562;-64
2021/05/22 03:50:05;;;;;;;8.33;1.77;;;6.90;99.90;;;;;;2113932;28;20182;-63
2021/05/22 03:51:06;;;;;;;5.65;1.60;;;6.80;99.90;;;;;;2113873;28;20289;-63
2021/05/22 03:52:07;;;;;;;5.20;1.73;;;6.80;99.90;;;;;;2114439;28;20586;-63
2021/05/22 03:53:08;;;;;;;3.50;1.53;;;6.80;99.90;;;;;;2114306;28;20182;-64
2021/05/22 03:54:09;;;;;;;6.63;1.63;;;6.80;99.90;;;;;;2114468;28;20660;-64
2021/05/22 03:55:12;;;;;;;4.97;1.60;;;6.70;99.90;;;;;;2114304;28;20170;-63
2021/05/22 03:56:12;;;;;;;6.53;2.42;;;6.70;99.90;;;;;;2114125;28;20202;-64
2021/05/22 03:57:13;;;;;;;4.17;1.40;;;6.70;99.90;;;;;;2114243;28;20193;-63
2021/05/22 03:58:14;;;;;;;5.47;1.40;;;6.70;99.90;;;;;;2114558;28;20181;-63
2021/05/22 03:59:14;;;;;;;5.27;1.50;;;6.70;99.90;;;;;;2111593;28;20178;-63
2021/05/22 04:00:16;;;;;;;7.63;1.90;;;6.70;99.90;;;;;;2105958;28;20179;-63
2021/05/22 04:01:17;;;;;;;4.57;1.50;;;6.70;99.90;;;;;;2105760;28;20198;-64
2021/05/22 04:02:18;;;;;;;6.25;1.67;;;6.70;99.90;;;;;;2106028;28;20274;-64
2021/05/22 04:03:19;;;;;;;6.70;2.67;;;6.70;99.90;;;;;;2106006;28;20178;-63
2021/05/22 04:04:19;;;;;;;4.73;2.33;;;6.80;99.90;;;;;;2105931;28;20239;-63
2021/05/22 04:05:20;;;;;;;3.80;1.60;;;6.80;99.90;;;;;;2105962;28;20261;-64
2021/05/22 04:06:21;;;;;;;6.47;1.50;;;6.80;99.90;;;;;;2106023;28;20669;-62
2021/05/22 04:07:22;;;;;;;4.60;1.50;;;6.70;99.90;;;;;;2106035;28;20186;-64
2021/05/22 04:08:22;;;;;;;5.40;1.30;;;6.60;99.90;;;;;;2105369;28;20186;-63
2021/05/22 04:09:23;;;;;;;3.10;1.30;;;6.70;99.90;;;;;;2105166;28;20190;-63
2021/05/22 04:10:24;;;;;;;5.73;1.50;;;6.80;99.90;;;;;;2106010;28;20667;-63
2021/05/22 04:11:24;;;;;;;3.80;1.23;;;6.80;99.90;;;;;;2105698;28;20213;-64
2021/05/22 04:12:25;;;;;;;7.43;1.60;;;6.90;99.90;;;;;;2105927;28;20171;-63
2021/05/22 04:13:26;;;;;;;5.20;1.70;;;6.90;99.90;;;;;;2105815;28;20179;-63
2021/05/22 04:14:27;;;;;;;6.18;1.63;;;7.00;99.90;;;;;;2106072;28;20198;-63
2021/05/22 04:15:27;;;;;;;6.27;1.80;;;7.00;99.90;;;;;;2105589;28;20175;-63
2021/05/22 04:16:28;;;;;;;2.87;1.33;;;7.00;99.90;;;;;;2105929;28;20555;-64
2021/05/22 04:17:29;;;;;;;4.83;1.77;;;7.00;99.90;;;;;;2105460;28;20815;-63
2021/05/22 04:18:29;;;;;;;3.60;1.47;;;7.00;99.90;;;;;;2106035;28;20179;-62
2021/05/22 04:19:30;;;;;;;5.23;1.40;;;6.90;99.90;;;;;;2106073;28;20182;-64
2021/05/22 04:20:31;;;;;;;5.57;1.50;;;7.00;99.90;;;;;;2106105;28;20630;-63
2021/05/22 04:21:32;;;;;;;5.50;1.65;;;7.00;99.90;;;;;;2106397;28;20175;-63
2021/05/22 04:22:33;;;;;;;6.87;1.50;;;7.00;99.90;;;;;;2105706;28;20746;-63
2021/05/22 04:23:35;;;;;;;4.50;1.60;;;7.10;99.90;;;;;;2096616;28;20198;-63
2021/05/22 04:24:36;;;;;;;6.38;1.48;;;7.00;99.90;;;;;;2105122;28;20176;-64
2021/05/22 04:25:37;;;;;;;2.67;1.20;;;7.10;99.90;;;;;;2105448;28;20167;-63
2021/05/22 04:26:38;;;;;;;5.50;1.40;;;7.10;99.90;;;;;;2105714;28;20190;-63
2021/05/22 04:27:38;;;;;;;3.93;1.60;;;7.10;99.90;;;;;;2105621;28;20187;-63
2021/05/22 04:28:39;;;;;;;5.50;1.73;;;7.20;99.90;;;;;;2105642;28;20278;-64
2021/05/22 04:29:40;;;;;;;5.87;1.50;;;7.20;99.90;;;;;;2105616;28;20675;-64
2021/05/22 04:30:41;;;;;;;5.97;1.40;;;7.30;99.90;;;;;;2105473;28;20261;-64
2021/05/22 04:31:41;;;;;;;5.07;1.30;;;7.30;99.90;;;;;;2105281;28;20673;-63
2021/05/22 04:32:42;;;;;;;5.70;1.90;;;7.20;99.90;;;;;;2105746;28;20179;-63
2021/05/22 04:33:43;;;;;;;5.17;1.80;;;7.10;99.90;;;;;;2105667;28;20175;-63
2021/05/22 04:34:43;;;;;;;5.20;1.50;;;7.10;99.90;;;;;;2105499;28;20170;-64
2021/05/22 04:35:44;;;;;;;8.10;1.83;;;7.10;99.90;;;;;;2105479;28;20194;-63
2021/05/22 04:36:45;;;;;;;7.77;2.00;;;7.00;99.90;;;;;;2105335;28;20170;-63
2021/05/22 04:37:46;;;;;;;5.37;1.80;;;7.00;99.90;;;;;;2105571;28;20651;-64
2021/05/22 04:38:46;;;;;;;6.53;1.93;;;7.10;99.90;;;;;;2105530;28;20714;-64
2021/05/22 04:39:47;;;;;;;6.90;1.67;;;7.10;99.90;;;;;;2105516;28;20420;-64
2021/05/22 04:40:48;;;;;;;6.43;1.60;;;7.10;99.90;;;;;;2105324;28;20642;-63
2021/05/22 04:41:48;;;;;;;5.40;1.57;;;7.10;99.90;;;;;;2105185;28;20688;-64
2021/05/22 04:42:49;;;;;;;4.60;1.37;;;7.00;99.90;;;;;;2105510;28;20242;-64
2021/05/22 04:43:50;;;;;;;3.63;1.20;;;7.10;99.90;;;;;;2105576;28;20207;-63
2021/05/22 04:44:50;;;;;;;7.37;1.77;;;7.20;99.90;;;;;;2105348;28;20183;-64
2021/05/22 04:45:51;;;;;;;6.40;1.70;;;7.20;99.90;;;;;;2105515;28;20215;-63
2021/05/22 04:46:52;;;;;;;6.60;1.50;;;7.20;99.90;;;;;;2105434;28;20641;-64
2021/05/22 04:47:52;;;;;;;3.43;1.33;;;7.20;99.90;;;;;;2105382;28;20194;-64
2021/05/22 04:48:56;;;;;;;5.33;1.80;;;7.30;99.90;;;;;;2105503;28;20580;-63
2021/05/22 04:49:57;;;;;;;7.75;2.05;;;7.40;99.90;;;;;;2105576;28;20266;-62
2021/05/22 04:50:57;;;;;;;6.33;1.50;;;7.40;99.90;;;;;;2105466;28;20238;-63
2021/05/22 04:51:58;;;;;;;5.93;1.40;;;7.50;99.90;;;;;;2105384;28;20182;-64
2021/05/22 04:53:00;;;;;;;6.73;1.40;;;7.50;99.90;;;;;;2105368;28;20495;-64
2021/05/22 04:54:05;;;;;;;6.10;1.65;;;7.50;99.90;;;;;;2105636;28;20175;-63
2021/05/22 04:55:07;;;;;;;5.03;1.42;;;7.50;99.90;;;;;;2105429;28;20830;-63
2021/05/22 04:56:08;;;;;;;3.35;1.30;;;7.50;99.90;;;;;;2105441;28;20607;-64
2021/05/22 04:57:08;;;;;;;4.40;1.50;;;7.50;99.90;;;;;;2097783;28;20198;-63
2021/05/22 04:58:09;;;;;;;5.37;1.40;;;7.60;99.90;;;;;;2096883;28;20591;-64
2021/05/22 04:59:10;;;;;;;6.40;1.50;;;7.50;99.90;;;;;;2096994;28;20176;-64
2021/05/22 05:00:11;;;;;;;5.03;1.60;;;7.50;99.90;;;;;;2097164;28;20168;-64
2021/05/22 05:01:12;;;;;;;6.18;1.50;;;7.40;99.90;;;;;;2096809;28;20283;-64
2021/05/22 05:02:13;;;;;;;5.23;2.13;;;7.40;99.90;;;;;;2097164;28;20177;-63
2021/05/22 05:03:14;;;;;;;5.20;1.60;;;7.40;99.90;;;;;;2096959;28;20266;-63
2021/05/22 05:04:15;;;;;;;6.27;1.70;;;7.40;99.90;;;;;;2097129;28;20505;-63
2021/05/22 05:05:15;;;;;;;5.30;1.47;;;7.40;99.90;;;;;;2096680;28;20207;-63
2021/05/22 05:06:17;;;;;;;5.77;1.63;;;7.40;99.90;;;;;;2096888;28;20207;-64
2021/05/22 05:07:17;;;;;;;6.15;1.40;;;7.40;99.90;;;;;;2097044;28;20188;-63
2021/05/22 05:08:20;;;;;;;4.63;1.47;;;7.60;99.90;;;;;;2097310;28;20188;-63
2021/05/22 05:09:21;;;;;;;6.00;1.83;;;7.60;99.90;;;;;;2097189;28;20239;-63
2021/05/22 05:10:22;;;;;;;4.33;1.40;;;7.60;99.90;;;;;;2096709;28;20237;-63
2021/05/22 05:11:23;;;;;;;4.10;1.48;;;7.60;99.90;;;;;;2088048;28;20798;-63
2021/05/22 05:12:23;;;;;;;6.80;1.63;;;7.60;99.90;;;;;;2096767;28;20227;-63
2021/05/22 05:13:24;;;;;;;9.67;1.97;;;7.50;99.90;;;;;;2097256;28;20281;-63
2021/05/22 05:14:25;;;;;;;8.87;1.90;;;7.60;99.90;;;;;;2097188;28;20263;-63
2021/05/22 05:15:25;;;;;;;6.63;1.93;;;7.60;99.90;;;;;;2097325;28;20205;-63
2021/05/22 05:16:28;;;;;;;5.17;1.40;;;7.70;99.90;;;;;;2097379;28;20654;-64
2021/05/22 05:17:29;;;;;;;4.72;1.20;;;7.70;99.90;;;;;;2097434;28;20563;-63
2021/05/22 05:18:30;;;;;;;3.83;1.50;;;7.70;99.90;;;;;;2097218;28;20182;-64
2021/05/22 05:19:31;;;;;;;5.38;1.58;;;7.70;99.90;;;;;;2097168;28;20203;-63
2021/05/22 05:20:32;;;;;;;6.15;1.45;;;7.70;99.90;;;;;;2097183;28;20181;-63
2021/05/22 05:21:33;;;;;;;7.18;1.65;;;7.90;99.90;;;;;;2096973;28;20222;-63
2021/05/22 05:22:34;;;;;;;3.57;1.20;;;7.90;99.90;;;;;;2096982;28;20196;-63
2021/05/22 05:23:38;;;;;;;6.43;1.53;;;8.00;99.90;;;;;;2097126;28;20701;-64
2021/05/22 05:24:39;;;;;;;5.68;1.60;;;7.90;99.90;;;;;;2096932;28;20247;-64
2021/05/22 05:25:39;;;;;;;4.77;1.33;;;7.90;99.90;;;;;;2098182;28;20268;-63
2021/05/22 05:26:40;;;;;;;3.30;1.33;;;7.90;99.90;;;;;;2096996;28;20199;-63
2021/05/22 05:27:41;;;;;;;8.40;1.90;;;7.90;99.90;;;;;;2097052;28;20183;-63